Tordesillas, Spain
Current Conditions -  °F | °C
As of 9:30 AM on Saturday 20 Dec 2014 (Local Time) from LEVD Reporting Station
Moderate Fog Moderate Fog  
Wind Chill:   Ceiling: 100
Heat Index:   Visibility: 0.06mi
Dew Point:   Wind: 1mph
Humidity: 100%   Direction: NA
Pressure: 30.56"   Gusts: NA
Location:  41.5°N, 5°W
Report Text: LEVD 200830Z VRB01KT 0100 R23/0275N FG VV001 01/01 Q1035
Loading
Personal Weather Stations






























Interactive Weather Map New forecast layout! Learn more

10-Day Weather Forecast

Advertisements
Track Severe Weather on mobile